הכול
Dax-Seyresse Airport LFBY מזג אוויר
|
(LFBY)
שמים בהירים
רוחות שקטות |
|
21 °C |
LFBY Terminal Area Forecast
| Date | Time (CEST) | Flight Rules | Wind Dir. | Speed | Type | Height AGL (ft) | Visibility | Remarks | ||||||
|---|---|---|---|---|---|---|---|---|---|---|---|---|---|---|
Recent LFBY METAR history
| Date | Time (CEST) | Flight Rules | Wind Dir. | Speed | Type | Height AGL (ft) | Visibility | Temp (°C) | Temp (°F) | Dew Point (°C) | Dew Point (°F) | Rel. Humid. | Pressure | Density Altitude | Remarks |
|---|---|---|---|---|---|---|---|---|---|---|---|---|---|---|---|
| 04-ספט | 23:30 | VFR | 260° | 3 kt | 10000 meters | 21° | 69° | 20° | 68° | 94% | 1023 mb | 539 ft | |||
| 04-ספט | 23:00 | VFR | 280° | 4 kt | 10000 meters | 22° | 71° | 20° | 68° | 88% | 1023 mb | 659 ft | |||
| 04-ספט | 22:30 | VFR | 270° | 6 kt | 10000 meters | 22° | 71° | 20° | 68° | 88% | 1023 mb | 659 ft | |||
| 04-ספט | 22:00 | VFR | 270° | 6 kt | 10000 meters | 22° | 71° | 20° | 68° | 88% | 1022 mb | 688 ft | |||
| 04-ספט | 21:30 | VFR | 280° | 6 kt | 10000 meters | 23° | 73° | 20° | 68° | 83% | 1022 mb | 808 ft | |||
| 04-ספט | 21:00 | VFR | 270° | 6 kt | 10000 meters | 23° | 73° | 20° | 68° | 83% | 1021 mb | 838 ft | |||
| 04-ספט | 20:30 | VFR | 270° | 5 kt | 10000 meters | 24° | 75° | 20° | 68° | 78% | 1020 mb | 987 ft | |||
| 04-ספט | 20:00 | VFR | 280° | 6 kt | 10000 meters | 25° | 77° | 20° | 68° | 74% | 1020 mb | 1,107 ft | |||
| 04-ספט | 19:30 | VFR | 280° | 6 kt | 10000 meters | 27° | 80° | 20° | 68° | 66% | 1019 mb | 1,377 ft | |||
| 04-ספט | 19:00 | VFR | 290° | 6 kt | 10000 meters | 28° | 82° | 19° | 66° | 58% | 1019 mb | 1,497 ft | |||
| 04-ספט | 18:30 | VFR | 310° | 5 kt | 10000 meters | 29° | 84° | 18° | 64° | 52% | 1019 mb | 1,617 ft | |||
| 04-ספט | 18:00 | VFR | 280° | 7 kt | 10000 meters | 31° | 87° | 18° | 64° | 46% | 1019 mb | 1,857 ft | |||
| 04-ספט | 17:30 | VFR | 270° | 7 kt | 10000 meters | 32° | 89° | 18° | 64° | 43% | 1019 mb | 1,977 ft | |||
| 04-ספט | 17:00 | VFR | 250° | 8 kt | 10000 meters | 32° | 89° | 17° | 62° | 41% | 1019 mb | 1,977 ft | |||
| 04-ספט | 16:30 | VFR | 260° | 9 kt | 10000 meters | 34° | 93° | 17° | 62° | 36% | 1019 mb | 2,217 ft | |||
| 04-ספט | 16:00 | VFR | 260° | 7 kt | 10000 meters | 34° | 93° | 15° | 59° | 32% | 1019 mb | 2,217 ft | |||
| 04-ספט | 15:30 | VFR | 250° | 8 kt | 10000 meters | 34° | 93° | 15° | 59° | 32% | 1019 mb | 2,217 ft | |||
| 04-ספט | 15:00 | VFR | 250° | 10 kt | 10000 meters | 35° | 95° | 14° | 57° | 28% | 1019 mb | 2,337 ft | |||
| 04-ספט | 14:30 | VFR | 250° | 7 kt | 10000 meters | 35° | 95° | 16° | 60° | 32% | 1019 mb | 2,337 ft | |||
| 04-ספט | 14:00 | VFR | 250° | 7 kt | 10000 meters | 34° | 93° | 16° | 60° | 34% | 1020 mb | 2,187 ft | |||
| 04-ספט | 13:30 | VFR | 270° | 4 kt | 10000 meters | 33° | 91° | 16° | 60° | 36% | 1020 mb | 2,067 ft | |||
| 04-ספט | 13:00 | VFR | 310° | 4 kt | 10000 meters | 31° | 87° | 18° | 64° | 46% | 1020 mb | 1,827 ft | |||
| 04-ספט | 12:30 | VFR | Variable | 2 kt | 10000 meters | 31° | 87° | 18° | 64° | 46% | 1020 mb | 1,827 ft | |||
| 04-ספט | 12:00 | VFR | Variable | 3 kt | 10000 meters | 29° | 84° | 18° | 64° | 52% | 1020 mb | 1,587 ft |
כניסה לאתר
| אין תמיכה בדפדפן שלך. שדרג את הדפדפן שלך |
